sensor_id;sensor_type;location;lat;lon;timestamp;P1;durP1;ratioP1;P2;durP2;ratioP2
53881;SDS011;39794;55.782;37.452;2023-06-05T00:00:03;4.35;;;2.20;;
53881;SDS011;39794;55.782;37.452;2023-06-05T00:02:38;7.05;;;2.25;;
53881;SDS011;39794;55.782;37.452;2023-06-05T00:05:08;3.15;;;2.08;;
53881;SDS011;39794;55.782;37.452;2023-06-05T00:07:37;4.82;;;2.05;;
53881;SDS011;39794;55.782;37.452;2023-06-05T00:10:08;4.97;;;2.60;;
53881;SDS011;39794;55.782;37.452;2023-06-05T00:12:37;4.90;;;2.00;;
53881;SDS011;39794;55.782;37.452;2023-06-05T00:15:07;7.07;;;2.17;;
53881;SDS011;39794;55.782;37.452;2023-06-05T00:17:36;3.92;;;2.17;;
53881;SDS011;39794;55.782;37.452;2023-06-05T00:20:06;3.28;;;2.28;;
53881;SDS011;39794;55.782;37.452;2023-06-05T00:22:37;4.22;;;1.90;;
53881;SDS011;39794;55.782;37.452;2023-06-05T00:25:08;4.47;;;2.15;;
53881;SDS011;39794;55.782;37.452;2023-06-05T00:27:37;3.50;;;2.20;;
53881;SDS011;39794;55.782;37.452;2023-06-05T00:30:08;2.60;;;2.00;;
53881;SDS011;39794;55.782;37.452;2023-06-05T00:32:37;8.20;;;2.45;;
53881;SDS011;39794;55.782;37.452;2023-06-05T00:35:08;5.30;;;2.45;;
53881;SDS011;39794;55.782;37.452;2023-06-05T00:37:37;4.32;;;1.90;;
53881;SDS011;39794;55.782;37.452;2023-06-05T00:40:08;3.28;;;1.98;;
53881;SDS011;39794;55.782;37.452;2023-06-05T00:42:37;4.10;;;2.10;;
53881;SDS011;39794;55.782;37.452;2023-06-05T00:45:07;3.88;;;1.80;;
53881;SDS011;39794;55.782;37.452;2023-06-05T00:47:37;5.03;;;2.30;;
53881;SDS011;39794;55.782;37.452;2023-06-05T00:50:07;5.82;;;1.80;;
53881;SDS011;39794;55.782;37.452;2023-06-05T00:52:36;6.68;;;2.28;;
53881;SDS011;39794;55.782;37.452;2023-06-05T00:55:05;3.92;;;1.77;;
53881;SDS011;39794;55.782;37.452;2023-06-05T00:57:37;4.97;;;2.10;;
53881;SDS011;39794;55.782;37.452;2023-06-05T01:00:07;7.10;;;2.38;;
53881;SDS011;39794;55.782;37.452;2023-06-05T01:02:40;7.10;;;2.60;;
53881;SDS011;39794;55.782;37.452;2023-06-05T01:05:09;4.88;;;2.20;;
53881;SDS011;39794;55.782;37.452;2023-06-05T01:07:38;6.45;;;1.92;;
53881;SDS011;39794;55.782;37.452;2023-06-05T01:10:09;6.32;;;1.95;;
53881;SDS011;39794;55.782;37.452;2023-06-05T01:12:40;5.18;;;2.10;;
53881;SDS011;39794;55.782;37.452;2023-06-05T01:15:15;6.88;;;1.73;;
53881;SDS011;39794;55.782;37.452;2023-06-05T01:17:45;4.30;;;2.03;;
53881;SDS011;39794;55.782;37.452;2023-06-05T01:20:14;4.00;;;2.00;;
53881;SDS011;39794;55.782;37.452;2023-06-05T01:22:49;3.10;;;2.25;;
53881;SDS011;39794;55.782;37.452;2023-06-05T01:25:19;4.40;;;2.00;;
53881;SDS011;39794;55.782;37.452;2023-06-05T01:27:51;1.73;;;1.60;;
53881;SDS011;39794;55.782;37.452;2023-06-05T01:30:23;4.07;;;2.05;;
53881;SDS011;39794;55.782;37.452;2023-06-05T01:32:56;3.42;;;2.22;;
53881;SDS011;39794;55.782;37.452;2023-06-05T01:35:30;3.63;;;1.77;;
53881;SDS011;39794;55.782;37.452;2023-06-05T01:38:02;4.57;;;1.70;;
53881;SDS011;39794;55.782;37.452;2023-06-05T01:40:33;2.78;;;1.60;;
53881;SDS011;39794;55.782;37.452;2023-06-05T01:43:06;2.70;;;1.70;;
53881;SDS011;39794;55.782;37.452;2023-06-05T01:45:40;1.95;;;1.20;;
53881;SDS011;39794;55.782;37.452;2023-06-05T01:48:09;2.70;;;1.50;;
53881;SDS011;39794;55.782;37.452;2023-06-05T01:50:43;4.93;;;1.67;;
53881;SDS011;39794;55.782;37.452;2023-06-05T01:53:14;2.17;;;1.48;;
53881;SDS011;39794;55.782;37.452;2023-06-05T01:55:44;2.10;;;1.50;;
53881;SDS011;39794;55.782;37.452;2023-06-05T01:58:13;3.33;;;1.40;;
53881;SDS011;39794;55.782;37.452;2023-06-05T02:00:45;1.67;;;1.30;;
53881;SDS011;39794;55.782;37.452;2023-06-05T02:03:14;2.72;;;1.60;;
53881;SDS011;39794;55.782;37.452;2023-06-05T02:05:47;4.50;;;1.92;;
53881;SDS011;39794;55.782;37.452;2023-06-05T02:08:17;2.15;;;1.42;;
53881;SDS011;39794;55.782;37.452;2023-06-05T02:10:50;2.03;;;1.38;;
53881;SDS011;39794;55.782;37.452;2023-06-05T02:13:19;3.90;;;1.38;;
53881;SDS011;39794;55.782;37.452;2023-06-05T02:15:50;2.92;;;1.48;;
53881;SDS011;39794;55.782;37.452;2023-06-05T02:18:25;1.73;;;1.20;;
53881;SDS011;39794;55.782;37.452;2023-06-05T02:20:56;1.40;;;1.20;;
53881;SDS011;39794;55.782;37.452;2023-06-05T02:23:27;2.05;;;1.55;;
53881;SDS011;39794;55.782;37.452;2023-06-05T02:25:55;2.70;;;1.33;;
53881;SDS011;39794;55.782;37.452;2023-06-05T02:28:25;4.43;;;1.55;;
53881;SDS011;39794;55.782;37.452;2023-06-05T02:30:54;4.20;;;1.40;;
53881;SDS011;39794;55.782;37.452;2023-06-05T02:33:23;2.63;;;1.25;;
53881;SDS011;39794;55.782;37.452;2023-06-05T02:35:51;4.88;;;1.30;;
53881;SDS011;39794;55.782;37.452;2023-06-05T02:38:20;2.05;;;1.23;;
53881;SDS011;39794;55.782;37.452;2023-06-05T02:40:52;5.10;;;1.33;;
53881;SDS011;39794;55.782;37.452;2023-06-05T02:43:20;2.58;;;1.30;;
53881;SDS011;39794;55.782;37.452;2023-06-05T02:45:50;2.30;;;1.50;;
53881;SDS011;39794;55.782;37.452;2023-06-05T02:48:18;3.28;;;1.55;;
53881;SDS011;39794;55.782;37.452;2023-06-05T02:50:53;1.92;;;1.67;;
53881;SDS011;39794;55.782;37.452;2023-06-05T02:53:22;2.65;;;1.33;;
53881;SDS011;39794;55.782;37.452;2023-06-05T02:55:52;5.72;;;1.30;;
53881;SDS011;39794;55.782;37.452;2023-06-05T02:58:23;2.72;;;1.55;;
53881;SDS011;39794;55.782;37.452;2023-06-05T03:00:56;3.30;;;1.58;;
53881;SDS011;39794;55.782;37.452;2023-06-05T03:03:36;2.53;;;1.30;;
53881;SDS011;39794;55.782;37.452;2023-06-05T03:06:05;2.45;;;1.30;;
53881;SDS011;39794;55.782;37.452;2023-06-05T03:08:48;2.47;;;1.60;;
53881;SDS011;39794;55.782;37.452;2023-06-05T03:11:20;1.98;;;1.50;;
53881;SDS011;39794;55.782;37.452;2023-06-05T03:13:52;2.28;;;1.35;;
53881;SDS011;39794;55.782;37.452;2023-06-05T03:16:22;1.75;;;1.10;;
53881;SDS011;39794;55.782;37.452;2023-06-05T03:19:01;1.77;;;1.45;;
53881;SDS011;39794;55.782;37.452;2023-06-05T03:21:32;3.10;;;1.52;;
53881;SDS011;39794;55.782;37.452;2023-06-05T03:24:01;5.63;;;1.40;;
53881;SDS011;39794;55.782;37.452;2023-06-05T03:26:31;3.60;;;1.65;;
53881;SDS011;39794;55.782;37.452;2023-06-05T03:29:02;2.05;;;1.15;;
53881;SDS011;39794;55.782;37.452;2023-06-05T03:31:30;3.47;;;1.40;;
53881;SDS011;39794;55.782;37.452;2023-06-05T03:33:59;2.80;;;1.48;;
53881;SDS011;39794;55.782;37.452;2023-06-05T03:36:30;2.53;;;1.25;;
53881;SDS011;39794;55.782;37.452;2023-06-05T03:39:04;3.28;;;1.60;;
53881;SDS011;39794;55.782;37.452;2023-06-05T03:41:36;4.00;;;1.48;;
53881;SDS011;39794;55.782;37.452;2023-06-05T03:44:05;3.45;;;1.80;;
53881;SDS011;39794;55.782;37.452;2023-06-05T03:46:36;2.90;;;1.42;;
53881;SDS011;39794;55.782;37.452;2023-06-05T03:49:05;3.45;;;1.50;;
53881;SDS011;39794;55.782;37.452;2023-06-05T03:51:39;3.00;;;1.85;;
53881;SDS011;39794;55.782;37.452;2023-06-05T03:54:11;2.88;;;1.50;;
53881;SDS011;39794;55.782;37.452;2023-06-05T03:56:42;2.17;;;1.67;;
53881;SDS011;39794;55.782;37.452;2023-06-05T03:59:17;1.90;;;1.52;;
53881;SDS011;39794;55.782;37.452;2023-06-05T04:01:56;7.10;;;1.40;;
53881;SDS011;39794;55.782;37.452;2023-06-05T04:04:25;1.70;;;1.60;;
53881;SDS011;39794;55.782;37.452;2023-06-05T04:06:56;3.03;;;1.40;;
53881;SDS011;39794;55.782;37.452;2023-06-05T04:09:27;4.20;;;1.52;;
53881;SDS011;39794;55.782;37.452;2023-06-05T04:11:57;2.00;;;1.58;;
53881;SDS011;39794;55.782;37.452;2023-06-05T04:14:28;1.83;;;1.38;;
53881;SDS011;39794;55.782;37.452;2023-06-05T04:16:57;2.58;;;1.50;;
53881;SDS011;39794;55.782;37.452;2023-06-05T04:19:26;6.05;;;1.48;;
53881;SDS011;39794;55.782;37.452;2023-06-05T04:21:56;2.97;;;1.63;;
53881;SDS011;39794;55.782;37.452;2023-06-05T04:24:26;2.60;;;1.38;;
53881;SDS011;39794;55.782;37.452;2023-06-05T04:26:58;3.08;;;1.65;;
53881;SDS011;39794;55.782;37.452;2023-06-05T04:29:27;1.88;;;1.40;;
53881;SDS011;39794;55.782;37.452;2023-06-05T04:31:59;3.30;;;1.80;;
53881;SDS011;39794;55.782;37.452;2023-06-05T04:34:28;1.90;;;1.60;;
53881;SDS011;39794;55.782;37.452;2023-06-05T04:36:58;4.75;;;1.70;;
53881;SDS011;39794;55.782;37.452;2023-06-05T04:39:27;2.05;;;1.40;;
53881;SDS011;39794;55.782;37.452;2023-06-05T04:41:57;2.85;;;1.40;;
53881;SDS011;39794;55.782;37.452;2023-06-05T04:44:43;2.20;;;1.40;;
53881;SDS011;39794;55.782;37.452;2023-06-05T04:47:12;5.20;;;1.65;;
53881;SDS011;39794;55.782;37.452;2023-06-05T04:49:42;2.40;;;1.52;;
53881;SDS011;39794;55.782;37.452;2023-06-05T04:52:11;2.30;;;1.90;;
53881;SDS011;39794;55.782;37.452;2023-06-05T04:54:41;3.63;;;1.80;;
53881;SDS011;39794;55.782;37.452;2023-06-05T04:57:13;4.95;;;2.25;;
53881;SDS011;39794;55.782;37.452;2023-06-05T04:59:46;4.22;;;1.80;;
53881;SDS011;39794;55.782;37.452;2023-06-05T05:02:15;2.83;;;1.70;;
53881;SDS011;39794;55.782;37.452;2023-06-05T05:04:45;4.93;;;1.77;;
53881;SDS011;39794;55.782;37.452;2023-06-05T05:07:18;3.03;;;1.70;;
53881;SDS011;39794;55.782;37.452;2023-06-05T05:09:54;3.92;;;1.50;;
53881;SDS011;39794;55.782;37.452;2023-06-05T05:12:25;5.40;;;1.80;;
53881;SDS011;39794;55.782;37.452;2023-06-05T05:14:54;3.00;;;1.90;;
53881;SDS011;39794;55.782;37.452;2023-06-05T05:17:23;1.65;;;1.55;;
53881;SDS011;39794;55.782;37.452;2023-06-05T05:19:53;3.45;;;1.58;;
53881;SDS011;39794;55.782;37.452;2023-06-05T05:22:23;2.40;;;1.60;;
53881;SDS011;39794;55.782;37.452;2023-06-05T05:24:54;5.15;;;1.70;;
53881;SDS011;39794;55.782;37.452;2023-06-05T05:27:31;3.55;;;2.00;;
53881;SDS011;39794;55.782;37.452;2023-06-05T05:30:01;3.50;;;1.73;;
53881;SDS011;39794;55.782;37.452;2023-06-05T05:32:32;4.05;;;1.88;;
53881;SDS011;39794;55.782;37.452;2023-06-05T05:35:01;2.03;;;1.48;;
53881;SDS011;39794;55.782;37.452;2023-06-05T05:37:32;1.73;;;1.45;;
53881;SDS011;39794;55.782;37.452;2023-06-05T05:40:01;2.88;;;1.70;;
53881;SDS011;39794;55.782;37.452;2023-06-05T05:42:33;5.10;;;2.20;;
53881;SDS011;39794;55.782;37.452;2023-06-05T05:45:05;4.47;;;1.90;;
53881;SDS011;39794;55.782;37.452;2023-06-05T05:47:35;4.13;;;1.85;;
53881;SDS011;39794;55.782;37.452;2023-06-05T05:50:04;3.83;;;2.00;;
53881;SDS011;39794;55.782;37.452;2023-06-05T05:52:36;3.92;;;1.98;;
53881;SDS011;39794;55.782;37.452;2023-06-05T05:55:07;3.78;;;2.33;;
53881;SDS011;39794;55.782;37.452;2023-06-05T05:57:39;3.75;;;1.77;;
53881;SDS011;39794;55.782;37.452;2023-06-05T06:00:07;3.58;;;1.75;;
53881;SDS011;39794;55.782;37.452;2023-06-05T06:02:39;2.85;;;1.70;;
53881;SDS011;39794;55.782;37.452;2023-06-05T06:05:09;3.95;;;1.65;;
53881;SDS011;39794;55.782;37.452;2023-06-05T06:07:39;3.50;;;2.08;;
53881;SDS011;39794;55.782;37.452;2023-06-05T06:10:10;4.68;;;1.90;;
53881;SDS011;39794;55.782;37.452;2023-06-05T06:12:42;2.65;;;1.80;;
53881;SDS011;39794;55.782;37.452;2023-06-05T06:15:11;3.00;;;1.80;;
53881;SDS011;39794;55.782;37.452;2023-06-05T06:17:40;3.30;;;1.45;;
53881;SDS011;39794;55.782;37.452;2023-06-05T06:20:09;2.70;;;1.95;;
53881;SDS011;39794;55.782;37.452;2023-06-05T06:22:40;3.15;;;1.70;;
53881;SDS011;39794;55.782;37.452;2023-06-05T06:25:10;2.90;;;1.77;;
53881;SDS011;39794;55.782;37.452;2023-06-05T06:27:39;4.00;;;1.77;;
53881;SDS011;39794;55.782;37.452;2023-06-05T06:30:09;4.57;;;2.03;;
53881;SDS011;39794;55.782;37.452;2023-06-05T06:32:41;10.88;;;2.65;;
53881;SDS011;39794;55.782;37.452;2023-06-05T06:35:15;3.70;;;1.40;;
53881;SDS011;39794;55.782;37.452;2023-06-05T06:37:44;3.80;;;1.63;;
53881;SDS011;39794;55.782;37.452;2023-06-05T06:40:12;2.47;;;1.70;;
53881;SDS011;39794;55.782;37.452;2023-06-05T06:42:41;1.98;;;1.67;;
53881;SDS011;39794;55.782;37.452;2023-06-05T06:45:31;4.85;;;2.05;;
53881;SDS011;39794;55.782;37.452;2023-06-05T06:48:00;1.65;;;1.30;;
53881;SDS011;39794;55.782;37.452;2023-06-05T06:50:31;2.55;;;1.85;;
53881;SDS011;39794;55.782;37.452;2023-06-05T06:53:00;2.33;;;1.60;;
53881;SDS011;39794;55.782;37.452;2023-06-05T06:55:29;3.00;;;1.33;;
53881;SDS011;39794;55.782;37.452;2023-06-05T06:57:59;1.90;;;1.50;;
53881;SDS011;39794;55.782;37.452;2023-06-05T07:00:34;3.63;;;1.42;;
53881;SDS011;39794;55.782;37.452;2023-06-05T07:03:04;2.50;;;1.55;;
53881;SDS011;39794;55.782;37.452;2023-06-05T07:05:36;1.70;;;1.15;;
53881;SDS011;39794;55.782;37.452;2023-06-05T07:08:04;0.90;;;0.80;;
53881;SDS011;39794;55.782;37.452;2023-06-05T07:10:33;2.00;;;0.90;;
53881;SDS011;39794;55.782;37.452;2023-06-05T07:13:05;2.38;;;1.27;;
53881;SDS011;39794;55.782;37.452;2023-06-05T07:15:35;1.40;;;1.13;;
53881;SDS011;39794;55.782;37.452;2023-06-05T07:18:05;1.58;;;1.00;;
53881;SDS011;39794;55.782;37.452;2023-06-05T07:20:37;1.92;;;1.10;;
53881;SDS011;39794;55.782;37.452;2023-06-05T07:23:05;1.27;;;1.10;;
53881;SDS011;39794;55.782;37.452;2023-06-05T07:25:34;1.73;;;1.20;;
53881;SDS011;39794;55.782;37.452;2023-06-05T07:28:08;1.20;;;0.90;;
53881;SDS011;39794;55.782;37.452;2023-06-05T07:30:40;1.48;;;0.98;;
53881;SDS011;39794;55.782;37.452;2023-06-05T07:33:14;1.83;;;0.88;;
53881;SDS011;39794;55.782;37.452;2023-06-05T07:38:23;2.97;;;1.00;;
53881;SDS011;39794;55.782;37.452;2023-06-05T07:40:53;2.67;;;1.13;;
53881;SDS011;39794;55.782;37.452;2023-06-05T07:43:26;1.30;;;0.80;;
53881;SDS011;39794;55.782;37.452;2023-06-05T07:45:56;1.48;;;0.80;;
53881;SDS011;39794;55.782;37.452;2023-06-05T07:48:28;1.58;;;0.60;;
53881;SDS011;39794;55.782;37.452;2023-06-05T07:50:57;2.42;;;0.70;;
53881;SDS011;39794;55.782;37.452;2023-06-05T07:53:26;1.65;;;0.90;;
53881;SDS011;39794;55.782;37.452;2023-06-05T07:55:54;2.00;;;0.75;;
53881;SDS011;39794;55.782;37.452;2023-06-05T07:58:25;1.42;;;1.10;;
53881;SDS011;39794;55.782;37.452;2023-06-05T08:00:54;0.95;;;0.65;;
53881;SDS011;39794;55.782;37.452;2023-06-05T08:03:25;1.55;;;1.00;;
53881;SDS011;39794;55.782;37.452;2023-06-05T08:05:54;1.30;;;0.70;;
53881;SDS011;39794;55.782;37.452;2023-06-05T08:08:25;0.65;;;0.65;;
53881;SDS011;39794;55.782;37.452;2023-06-05T08:10:54;2.80;;;1.10;;
53881;SDS011;39794;55.782;37.452;2023-06-05T08:13:23;1.30;;;0.80;;
53881;SDS011;39794;55.782;37.452;2023-06-05T08:15:53;2.20;;;0.80;;
53881;SDS011;39794;55.782;37.452;2023-06-05T08:18:25;1.90;;;0.77;;
53881;SDS011;39794;55.782;37.452;2023-06-05T08:20:54;1.77;;;0.93;;
53881;SDS011;39794;55.782;37.452;2023-06-05T08:23:23;1.45;;;0.95;;
53881;SDS011;39794;55.782;37.452;2023-06-05T08:25:51;3.35;;;0.75;;
53881;SDS011;39794;55.782;37.452;2023-06-05T08:28:24;3.42;;;0.85;;
53881;SDS011;39794;55.782;37.452;2023-06-05T08:30:52;2.22;;;0.90;;
53881;SDS011;39794;55.782;37.452;2023-06-05T08:33:21;1.02;;;0.77;;
53881;SDS011;39794;55.782;37.452;2023-06-05T08:35:53;2.10;;;0.80;;
53881;SDS011;39794;55.782;37.452;2023-06-05T08:38:22;1.88;;;0.80;;
53881;SDS011;39794;55.782;37.452;2023-06-05T08:40:55;4.03;;;0.80;;
53881;SDS011;39794;55.782;37.452;2023-06-05T08:43:25;2.60;;;0.95;;
53881;SDS011;39794;55.782;37.452;2023-06-05T08:45:54;1.63;;;0.80;;
53881;SDS011;39794;55.782;37.452;2023-06-05T08:48:25;1.02;;;0.70;;
53881;SDS011;39794;55.782;37.452;2023-06-05T08:50:56;1.80;;;0.70;;
53881;SDS011;39794;55.782;37.452;2023-06-05T08:53:24;1.25;;;1.10;;
53881;SDS011;39794;55.782;37.452;2023-06-05T08:55:58;2.75;;;0.82;;
53881;SDS011;39794;55.782;37.452;2023-06-05T08:58:27;2.88;;;1.20;;
53881;SDS011;39794;55.782;37.452;2023-06-05T09:00:56;4.70;;;1.00;;
53881;SDS011;39794;55.782;37.452;2023-06-05T09:03:24;4.25;;;1.00;;
53881;SDS011;39794;55.782;37.452;2023-06-05T09:05:53;2.80;;;1.00;;
53881;SDS011;39794;55.782;37.452;2023-06-05T09:08:29;2.50;;;0.90;;
53881;SDS011;39794;55.782;37.452;2023-06-05T09:11:19;2.67;;;1.00;;
53881;SDS011;39794;55.782;37.452;2023-06-05T09:13:49;1.30;;;0.90;;
53881;SDS011;39794;55.782;37.452;2023-06-05T09:16:21;4.10;;;0.90;;
53881;SDS011;39794;55.782;37.452;2023-06-05T09:18:51;1.15;;;0.80;;
53881;SDS011;39794;55.782;37.452;2023-06-05T09:21:21;1.35;;;0.88;;
53881;SDS011;39794;55.782;37.452;2023-06-05T09:24:14;2.10;;;1.25;;
53881;SDS011;39794;55.782;37.452;2023-06-05T09:29:19;3.42;;;1.10;;
53881;SDS011;39794;55.782;37.452;2023-06-05T09:31:49;4.00;;;1.10;;
53881;SDS011;39794;55.782;37.452;2023-06-05T09:34:22;2.72;;;0.95;;
53881;SDS011;39794;55.782;37.452;2023-06-05T09:36:51;1.58;;;1.00;;
53881;SDS011;39794;55.782;37.452;2023-06-05T09:39:23;5.05;;;1.02;;
53881;SDS011;39794;55.782;37.452;2023-06-05T09:41:54;1.67;;;1.00;;
53881;SDS011;39794;55.782;37.452;2023-06-05T09:44:24;2.90;;;1.17;;
53881;SDS011;39794;55.782;37.452;2023-06-05T09:46:54;2.85;;;1.17;;
53881;SDS011;39794;55.782;37.452;2023-06-05T09:49:27;3.50;;;1.30;;
53881;SDS011;39794;55.782;37.452;2023-06-05T09:51:58;1.02;;;0.77;;
53881;SDS011;39794;55.782;37.452;2023-06-05T09:54:29;3.08;;;1.10;;
53881;SDS011;39794;55.782;37.452;2023-06-05T09:57:04;1.40;;;1.10;;
53881;SDS011;39794;55.782;37.452;2023-06-05T09:59:40;2.28;;;1.20;;
53881;SDS011;39794;55.782;37.452;2023-06-05T10:02:23;2.28;;;1.25;;
53881;SDS011;39794;55.782;37.452;2023-06-05T10:04:54;1.73;;;1.00;;
53881;SDS011;39794;55.782;37.452;2023-06-05T10:07:26;1.90;;;1.20;;
53881;SDS011;39794;55.782;37.452;2023-06-05T10:09:56;1.88;;;1.13;;
53881;SDS011;39794;55.782;37.452;2023-06-05T10:12:26;2.20;;;1.35;;
53881;SDS011;39794;55.782;37.452;2023-06-05T10:14:54;3.33;;;1.20;;
53881;SDS011;39794;55.782;37.452;2023-06-05T10:17:23;3.42;;;1.60;;
53881;SDS011;39794;55.782;37.452;2023-06-05T10:19:52;4.28;;;1.55;;
53881;SDS011;39794;55.782;37.452;2023-06-05T10:22:23;3.58;;;1.20;;
53881;SDS011;39794;55.782;37.452;2023-06-05T10:24:54;2.13;;;1.00;;
53881;SDS011;39794;55.782;37.452;2023-06-05T10:27:36;2.90;;;1.50;;
53881;SDS011;39794;55.782;37.452;2023-06-05T10:33:21;2.75;;;1.02;;
53881;SDS011;39794;55.782;37.452;2023-06-05T10:35:59;2.10;;;1.50;;
53881;SDS011;39794;55.782;37.452;2023-06-05T10:38:33;0.98;;;0.88;;
53881;SDS011;39794;55.782;37.452;2023-06-05T10:41:06;2.97;;;1.10;;
53881;SDS011;39794;55.782;37.452;2023-06-05T10:43:45;2.05;;;1.30;;
53881;SDS011;39794;55.782;37.452;2023-06-05T10:46:28;2.47;;;1.40;;
53881;SDS011;39794;55.782;37.452;2023-06-05T10:49:11;3.42;;;1.48;;
53881;SDS011;39794;55.782;37.452;2023-06-05T10:51:43;3.33;;;1.50;;
53881;SDS011;39794;55.782;37.452;2023-06-05T10:54:15;4.20;;;1.48;;
53881;SDS011;39794;55.782;37.452;2023-06-05T10:57:24;2.60;;;0.95;;
53881;SDS011;39794;55.782;37.452;2023-06-05T11:00:04;2.60;;;1.00;;
53881;SDS011;39794;55.782;37.452;2023-06-05T11:02:46;1.63;;;0.90;;
53881;SDS011;39794;55.782;37.452;2023-06-05T11:05:16;1.60;;;0.80;;
53881;SDS011;39794;55.782;37.452;2023-06-05T11:07:51;2.17;;;0.90;;
53881;SDS011;39794;55.782;37.452;2023-06-05T11:13:52;3.03;;;1.00;;
53881;SDS011;39794;55.782;37.452;2023-06-05T11:16:26;0.88;;;0.80;;
53881;SDS011;39794;55.782;37.452;2023-06-05T11:22:06;1.15;;;0.77;;
53881;SDS011;39794;55.782;37.452;2023-06-05T11:24:36;0.93;;;0.85;;
53881;SDS011;39794;55.782;37.452;2023-06-05T11:27:07;1.42;;;1.02;;
53881;SDS011;39794;55.782;37.452;2023-06-05T11:30:21;2.60;;;1.50;;
53881;SDS011;39794;55.782;37.452;2023-06-05T11:33:11;3.13;;;1.50;;
53881;SDS011;39794;55.782;37.452;2023-06-05T11:35:41;2.80;;;1.10;;
53881;SDS011;39794;55.782;37.452;2023-06-05T11:38:11;3.65;;;1.30;;
53881;SDS011;39794;55.782;37.452;2023-06-05T11:40:41;1.92;;;1.20;;
53881;SDS011;39794;55.782;37.452;2023-06-05T11:43:12;1.58;;;1.17;;
53881;SDS011;39794;55.782;37.452;2023-06-05T11:45:49;2.13;;;1.00;;
53881;SDS011;39794;55.782;37.452;2023-06-05T11:48:19;1.45;;;0.90;;
53881;SDS011;39794;55.782;37.452;2023-06-05T11:50:52;2.53;;;1.10;;
53881;SDS011;39794;55.782;37.452;2023-06-05T11:53:21;1.40;;;1.10;;
53881;SDS011;39794;55.782;37.452;2023-06-05T11:55:50;3.05;;;0.95;;
53881;SDS011;39794;55.782;37.452;2023-06-05T11:58:35;2.47;;;1.13;;
53881;SDS011;39794;55.782;37.452;2023-06-05T12:01:12;1.20;;;0.73;;
53881;SDS011;39794;55.782;37.452;2023-06-05T12:03:45;1.40;;;0.73;;
53881;SDS011;39794;55.782;37.452;2023-06-05T12:06:14;1.73;;;0.88;;
53881;SDS011;39794;55.782;37.452;2023-06-05T12:08:44;2.60;;;1.17;;
53881;SDS011;39794;55.782;37.452;2023-06-05T12:11:21;1.63;;;0.70;;
53881;SDS011;39794;55.782;37.452;2023-06-05T12:13:51;2.13;;;1.00;;
53881;SDS011;39794;55.782;37.452;2023-06-05T12:16:29;2.75;;;1.13;;
53881;SDS011;39794;55.782;37.452;2023-06-05T12:19:00;2.53;;;1.52;;
53881;SDS011;39794;55.782;37.452;2023-06-05T12:21:41;1.60;;;1.00;;
53881;SDS011;39794;55.782;37.452;2023-06-05T12:24:11;4.95;;;1.02;;
53881;SDS011;39794;55.782;37.452;2023-06-05T12:26:52;2.25;;;0.80;;
53881;SDS011;39794;55.782;37.452;2023-06-05T12:29:22;5.97;;;1.15;;
53881;SDS011;39794;55.782;37.452;2023-06-05T12:31:55;1.88;;;0.68;;
53881;SDS011;39794;55.782;37.452;2023-06-05T12:34:43;0.80;;;0.80;;
53881;SDS011;39794;55.782;37.452;2023-06-05T12:37:23;1.58;;;1.00;;
53881;SDS011;39794;55.782;37.452;2023-06-05T12:39:55;4.03;;;1.17;;
53881;SDS011;39794;55.782;37.452;2023-06-05T12:42:25;1.75;;;1.10;;
53881;SDS011;39794;55.782;37.452;2023-06-05T12:44:56;1.20;;;1.08;;
53881;SDS011;39794;55.782;37.452;2023-06-05T12:47:26;1.50;;;0.90;;
53881;SDS011;39794;55.782;37.452;2023-06-05T12:49:54;3.95;;;1.00;;
53881;SDS011;39794;55.782;37.452;2023-06-05T12:52:23;1.67;;;0.93;;
53881;SDS011;39794;55.782;37.452;2023-06-05T12:54:54;4.43;;;1.00;;
53881;SDS011;39794;55.782;37.452;2023-06-05T12:57:25;4.22;;;1.63;;
53881;SDS011;39794;55.782;37.452;2023-06-05T12:59:54;4.00;;;1.48;;
53881;SDS011;39794;55.782;37.452;2023-06-05T13:02:23;3.30;;;1.00;;
53881;SDS011;39794;55.782;37.452;2023-06-05T13:04:59;3.28;;;1.20;;
53881;SDS011;39794;55.782;37.452;2023-06-05T13:07:30;2.47;;;0.90;;
53881;SDS011;39794;55.782;37.452;2023-06-05T13:09:58;1.45;;;0.80;;
53881;SDS011;39794;55.782;37.452;2023-06-05T13:12:29;2.88;;;1.00;;
53881;SDS011;39794;55.782;37.452;2023-06-05T13:15:00;3.35;;;0.80;;
53881;SDS011;39794;55.782;37.452;2023-06-05T13:17:32;2.92;;;1.08;;
53881;SDS011;39794;55.782;37.452;2023-06-05T13:20:05;2.08;;;0.82;;
53881;SDS011;39794;55.782;37.452;2023-06-05T13:22:36;1.33;;;0.93;;
53881;SDS011;39794;55.782;37.452;2023-06-05T13:25:05;3.03;;;0.90;;
53881;SDS011;39794;55.782;37.452;2023-06-05T13:27:35;1.90;;;1.13;;
53881;SDS011;39794;55.782;37.452;2023-06-05T13:30:07;1.55;;;0.93;;
53881;SDS011;39794;55.782;37.452;2023-06-05T13:32:36;1.65;;;1.13;;
53881;SDS011;39794;55.782;37.452;2023-06-05T13:35:10;2.47;;;0.90;;
53881;SDS011;39794;55.782;37.452;2023-06-05T13:37:39;3.78;;;1.13;;
53881;SDS011;39794;55.782;37.452;2023-06-05T13:40:09;2.30;;;1.05;;
53881;SDS011;39794;55.782;37.452;2023-06-05T13:42:38;3.17;;;1.05;;
53881;SDS011;39794;55.782;37.452;2023-06-05T13:45:08;2.75;;;1.00;;
53881;SDS011;39794;55.782;37.452;2023-06-05T13:47:37;3.03;;;0.93;;
53881;SDS011;39794;55.782;37.452;2023-06-05T13:50:07;3.80;;;0.93;;
53881;SDS011;39794;55.782;37.452;2023-06-05T13:52:38;3.47;;;1.20;;
53881;SDS011;39794;55.782;37.452;2023-06-05T13:55:08;2.70;;;1.08;;
53881;SDS011;39794;55.782;37.452;2023-06-05T13:57:36;2.63;;;1.25;;
53881;SDS011;39794;55.782;37.452;2023-06-05T14:00:05;1.52;;;0.95;;
53881;SDS011;39794;55.782;37.452;2023-06-05T14:02:35;1.92;;;1.02;;
53881;SDS011;39794;55.782;37.452;2023-06-05T14:05:05;5.45;;;1.20;;
53881;SDS011;39794;55.782;37.452;2023-06-05T14:07:39;1.42;;;0.73;;
53881;SDS011;39794;55.782;37.452;2023-06-05T14:10:17;2.40;;;0.95;;
53881;SDS011;39794;55.782;37.452;2023-06-05T14:12:47;5.03;;;1.00;;
53881;SDS011;39794;55.782;37.452;2023-06-05T14:15:19;1.42;;;0.93;;
53881;SDS011;39794;55.782;37.452;2023-06-05T14:17:50;3.60;;;1.17;;
53881;SDS011;39794;55.782;37.452;2023-06-05T14:20:19;1.52;;;0.95;;
53881;SDS011;39794;55.782;37.452;2023-06-05T14:22:52;2.13;;;1.10;;
53881;SDS011;39794;55.782;37.452;2023-06-05T14:25:21;1.42;;;0.93;;
53881;SDS011;39794;55.782;37.452;2023-06-05T14:27:53;1.63;;;1.20;;
53881;SDS011;39794;55.782;37.452;2023-06-05T14:30:22;2.67;;;1.85;;
53881;SDS011;39794;55.782;37.452;2023-06-05T14:32:51;5.63;;;1.30;;
53881;SDS011;39794;55.782;37.452;2023-06-05T14:35:20;2.67;;;1.23;;
53881;SDS011;39794;55.782;37.452;2023-06-05T14:37:50;1.83;;;1.15;;
53881;SDS011;39794;55.782;37.452;2023-06-05T14:40:19;3.22;;;1.00;;
53881;SDS011;39794;55.782;37.452;2023-06-05T14:42:51;1.30;;;0.90;;
53881;SDS011;39794;55.782;37.452;2023-06-05T14:45:20;1.38;;;1.08;;
53881;SDS011;39794;55.782;37.452;2023-06-05T14:47:48;2.88;;;1.33;;
53881;SDS011;39794;55.782;37.452;2023-06-05T14:50:18;1.77;;;0.70;;
53881;SDS011;39794;55.782;37.452;2023-06-05T14:52:47;3.15;;;1.20;;
53881;SDS011;39794;55.782;37.452;2023-06-05T14:55:17;1.67;;;1.08;;
53881;SDS011;39794;55.782;37.452;2023-06-05T14:57:46;1.30;;;1.00;;
53881;SDS011;39794;55.782;37.452;2023-06-05T15:00:17;3.45;;;1.25;;
53881;SDS011;39794;55.782;37.452;2023-06-05T15:02:46;1.33;;;0.98;;
53881;SDS011;39794;55.782;37.452;2023-06-05T15:05:15;3.60;;;1.25;;
53881;SDS011;39794;55.782;37.452;2023-06-05T15:07:46;2.80;;;1.20;;
53881;SDS011;39794;55.782;37.452;2023-06-05T15:10:21;1.40;;;1.30;;
53881;SDS011;39794;55.782;37.452;2023-06-05T15:12:50;3.20;;;1.27;;